Terminal Aerodrome Forecast
Issued by NWS

Home | Current Version | Previous Version | Text Only | Print | Product List | Glossary On
Versions: 1 2 3 4 5 6 7 8 9 10 11 12
000
FTUS43 KIND 301700
TAFBMG
TAF
KBMG 301720Z 3018/3118 26009KT P6SM FEW250
     FM310000 21006KT P6SM SCT150
     FM310900 23011G17KT P6SM SKC
     FM311500 27012G18KT P6SM FEW025=

USA.gov is the U.S. government's official web portal to all federal, state and local government web resources and services.